createdAt,value
2018-04-26T00:05:06.507Z,66.0
2018-04-26T00:21:45.009Z,66.0
2018-04-26T00:38:22.621Z,66.0
2018-04-26T00:55:00.777Z,65.2
2018-04-26T01:11:38.973Z,65.2
2018-04-26T01:28:17.115Z,64.8
2018-04-26T01:44:55.470Z,64.8
2018-04-26T02:01:33.784Z,65.2
2018-04-26T02:18:11.908Z,66.8
2018-04-26T02:34:49.748Z,67.6
2018-04-26T02:51:27.782Z,68.4
2018-04-26T03:08:05.308Z,68.8
2018-04-26T03:24:42.976Z,69.2
2018-04-26T03:41:20.821Z,69.6
2018-04-26T03:57:58.412Z,69.6
2018-04-26T04:14:35.744Z,70.0
2018-04-26T04:22:54.609Z,69.2
2018-04-26T04:39:31.538Z,71.6
2018-04-26T04:56:08.608Z,72.8
2018-04-26T05:12:45.961Z,72.8
2018-04-26T05:29:22.915Z,72.8
2018-04-26T05:46:00.418Z,72.8
2018-04-26T06:02:38.369Z,72.4
2018-04-26T06:19:16.543Z,72.0
2018-04-26T06:35:55.075Z,71.6
2018-04-26T06:42:34.682Z,71.2
2018-04-26T06:59:13.468Z,70.0
2018-04-26T07:15:52.525Z,70.4
2018-04-26T07:29:11.941Z,70.0
2018-04-26T07:45:53.237Z,68.8
2018-04-26T08:02:31.233Z,68.8
2018-04-26T08:19:11.340Z,67.6
2018-04-26T08:35:51.514Z,66.0
2018-04-26T08:49:11.708Z,64.0
2018-04-26T08:59:12.394Z,63.2
2018-04-26T09:15:53.463Z,63.2
2018-04-26T09:29:14.233Z,64.0
2018-04-26T09:35:54.253Z,66.4
2018-04-26T09:45:54.251Z,66.8
2018-04-26T10:02:34.785Z,66.0
2018-04-26T10:09:15.757Z,64.8
2018-04-26T10:19:16.426Z,62.8
2018-04-26T10:25:56.997Z,62.8
2018-04-26T10:42:38.014Z,62.8
2018-04-26T10:49:18.749Z,60.8
2018-04-26T11:06:00.924Z,58.8
2018-04-26T11:22:43.345Z,57.6
2018-04-26T11:39:25.339Z,56.8
2018-04-26T11:56:07.103Z,57.2
2018-04-26T12:02:47.858Z,58.4
2018-04-26T12:06:08.033Z,60.0
2018-04-26T12:12:48.473Z,62.4
2018-04-26T12:16:08.189Z,63.2
2018-04-26T12:32:48.220Z,64.0
2018-04-26T12:36:07.852Z,65.2
2018-04-26T12:42:47.954Z,64.8
2018-04-26T12:52:48.967Z,64.4
2018-04-26T12:59:29.480Z,63.6
2018-04-26T13:06:10.316Z,61.6
2018-04-26T13:16:11.635Z,58.8
2018-04-26T13:26:12.837Z,56.4
2018-04-26T13:42:54.762Z,55.6
2018-04-26T13:46:15.278Z,53.6
2018-04-26T14:02:57.436Z,54.4
2018-04-26T14:09:37.808Z,56.8
2018-04-26T14:26:18.421Z,57.2
2018-04-26T14:42:59.762Z,56.4
2018-04-26T14:56:20.754Z,54.0
2018-04-26T15:06:21.714Z,53.6
2018-04-26T15:19:43.542Z,53.6
2018-04-26T15:36:26.200Z,52.4
2018-04-26T15:39:46.997Z,50.4
2018-04-26T15:56:29.560Z,50.0
2018-04-26T16:06:30.845Z,47.6
2018-04-26T16:23:13.587Z,47.6
2018-04-26T16:36:36.121Z,45.6
2018-04-26T16:53:18.872Z,45.6
2018-04-26T17:03:21.219Z,46.0
2018-04-26T17:10:02.509Z,44.8
2018-04-26T17:20:04.609Z,44.4
2018-04-26T17:26:45.332Z,45.2
2018-04-26T17:33:26.398Z,44.8
2018-04-26T17:43:27.132Z,45.6
2018-04-26T18:00:08.138Z,46.0
2018-04-26T18:16:48.710Z,46.8
2018-04-26T18:33:29.049Z,48.0
2018-04-26T18:50:09.097Z,48.8
2018-04-26T19:06:49.165Z,49.6
2018-04-26T19:23:28.701Z,50.4
2018-04-26T19:40:08.005Z,51.6
2018-04-26T19:56:47.161Z,52.4
2018-04-26T20:13:26.288Z,53.6
2018-04-26T20:30:04.968Z,55.2
2018-04-26T20:46:43.750Z,56.8
2018-04-26T21:03:22.778Z,58.4
2018-04-26T21:20:00.576Z,60.0
2018-04-26T21:36:38.438Z,61.2
2018-04-26T21:53:16.776Z,61.2
2018-04-26T22:09:53.966Z,62.4
2018-04-26T22:26:31.550Z,63.2
2018-04-26T22:43:08.976Z,64.0
2018-04-26T22:59:46.632Z,64.0
2018-04-26T23:16:24.692Z,64.8
2018-04-26T23:33:02.760Z,65.2
2018-04-26T23:49:40.176Z,66.0
